PWSweather.com
Personal Weather Stations
Station Observations
CAPEBRETON
Mira Road, Sydney, NS

Mira RoadSydney, NS

Lat: 46.1207292, Lon: -60.1594642

Elevation: 175

Station Type: AcuRite Professional Weather Center

http://pwscapebreton.wix.com/weather-watcher

Latest ConditionsUpdated 1:28:53 AM GMT-04:56 Tuesday, Feb 28, 2017
Currently Today's Max Today's Min Today's Average
Temperature 30.0°F-1.1°C 33.6°F0.9°C 30.0°F-1.1°C 32.0°F0.0°C
Dew Point 23.4°F-4.8°C 29.1°F-1.6°C 23.4°F-4.8°C 26.4°F-3.1°C
Winds 2.7 mph NW4.3 kmh NW 6.8 mph SW10.9 kmh SW - 2.8 mph 4.5 kmh
Wind Gusts 4.2 mph6.8 kmh 6.8 mph10.9 kmh - -
Humidity 76% 85% 75% 80%
Pressure 30.12 in1020.0 mb 30.12 in1020.0 mb 30.07 in1018.3 mb -
Hour Temp Dew Point Humidity Winds Wind Gusts Pressure Precip Precip Rate Daily Precip Total
01:28 AM 30.0°F-1.1°C 23.4°F-4.8°C 76% 2.7 mph NNW4.3 kmh NNW 4.2 mph6.8 kmh 30.12 in1020.0 mb 0.00 in0.0 mm 0.00 in0.0 mm 0.00 in0.0 mm
01:27 AM 30.0°F-1.1°C 23.7°F-4.6°C 77% 4.2 mph W6.8 kmh W 4.2 mph6.8 kmh 30.12 in1020.0 mb 0.00 in0.0 mm 0.00 in0.0 mm 0.00 in0.0 mm
01:26 AM 30.2°F-1.0°C 23.9°F-4.5°C 77% 2.2 mph W3.5 kmh W 4.2 mph6.8 kmh 30.12 in1020.0 mb 0.00 in0.0 mm 0.00 in0.0 mm 0.00 in0.0 mm
01:25 AM 30.2°F-1.0°C 23.9°F-4.5°C 77% 2.2 mph NNW3.5 kmh NNW 4.2 mph6.8 kmh 30.12 in1020.0 mb 0.00 in0.0 mm 0.00 in0.0 mm 0.00 in0.0 mm
01:24 AM 30.2°F-1.0°C 23.9°F-4.5°C 77% 1.1 mph NNW1.8 kmh NNW 4.2 mph6.8 kmh 30.12 in1020.0 mb 0.00 in0.0 mm 0.00 in0.0 mm 0.00 in0.0 mm
01:23 AM 30.4°F-0.9°C 24.1°F-4.4°C 77% 1.7 mph NNE2.7 kmh NNE 4.2 mph6.8 kmh 30.12 in1020.0 mb 0.00 in0.0 mm 0.00 in0.0 mm 0.00 in0.0 mm
01:22 AM 30.4°F-0.9°C 24.1°F-4.4°C 77% 2.7 mph WNW4.3 kmh WNW 5.8 mph9.3 kmh 30.12 in1020.0 mb 0.00 in0.0 mm 0.00 in0.0 mm 0.00 in0.0 mm
01:21 AM 30.6°F-0.8°C 24.3°F-4.3°C 77% Calm Calm 5.8 mph9.3 kmh 30.12 in1020.0 mb 0.00 in0.0 mm 0.00 in0.0 mm 0.00 in0.0 mm
01:20 AM 30.6°F-0.8°C 24.3°F-4.3°C 77% 2.2 mph NE3.5 kmh NE 5.8 mph9.3 kmh 30.12 in1020.0 mb 0.00 in0.0 mm 0.00 in0.0 mm 0.00 in0.0 mm
01:19 AM 30.6°F-0.8°C 24.3°F-4.3°C 77% 1.7 mph NNW2.7 kmh NNW 5.8 mph9.3 kmh 30.12 in1020.0 mb 0.00 in0.0 mm 0.00 in0.0 mm 0.00 in0.0 mm
01:18 AM 30.6°F-0.8°C 24.3°F-4.3°C 77% 2.2 mph W3.5 kmh W 5.8 mph9.3 kmh 30.12 in1020.0 mb 0.00 in0.0 mm 0.00 in0.0 mm 0.00 in0.0 mm
01:17 AM 30.7°F-0.7°C 24.4°F-4.2°C 77% 3.2 mph NW5.1 kmh NW 5.8 mph9.3 kmh 30.12 in1020.0 mb 0.00 in0.0 mm 0.00 in0.0 mm 0.00 in0.0 mm
01:16 AM 30.7°F-0.7°C 24.7°F-4.1°C 78% 3.2 mph NE5.1 kmh NE 5.8 mph9.3 kmh 30.12 in1020.0 mb 0.00 in0.0 mm 0.00 in0.0 mm 0.00 in0.0 mm
01:15 AM 30.7°F-0.7°C 24.7°F-4.1°C 78% 1.7 mph NW2.7 kmh NW 5.8 mph9.3 kmh 30.12 in1020.0 mb 0.00 in0.0 mm 0.00 in0.0 mm 0.00 in0.0 mm
01:14 AM 30.7°F-0.7°C 24.7°F-4.1°C 78% 3.7 mph NNW6.0 kmh NNW 5.8 mph9.3 kmh 30.12 in1020.0 mb 0.00 in0.0 mm 0.00 in0.0 mm 0.00 in0.0 mm
01:13 AM 30.7°F-0.7°C 25.0°F-3.9°C 79% 3.2 mph WNW5.1 kmh WNW 5.8 mph9.3 kmh 30.12 in1020.0 mb 0.00 in0.0 mm 0.00 in0.0 mm 0.00 in0.0 mm
01:12 AM 30.7°F-0.7°C 25.0°F-3.9°C 79% 3.2 mph W5.1 kmh W 3.7 mph6.0 kmh 30.12 in1020.0 mb 0.00 in0.0 mm 0.00 in0.0 mm 0.00 in0.0 mm
01:11 AM 30.9°F-0.6°C 25.2°F-3.8°C 79% 1.7 mph WSW2.7 kmh WSW 3.7 mph6.0 kmh 30.12 in1020.0 mb 0.00 in0.0 mm 0.00 in0.0 mm 0.00 in0.0 mm
01:10 AM 30.9°F-0.6°C 25.2°F-3.8°C 79% 2.2 mph W3.5 kmh W 3.7 mph6.0 kmh 30.12 in1020.0 mb 0.00 in0.0 mm 0.00 in0.0 mm 0.00 in0.0 mm
01:09 AM 31.1°F-0.5°C 25.4°F-3.7°C 79% 2.2 mph NW3.5 kmh NW 3.7 mph6.0 kmh 30.12 in1020.0 mb 0.00 in0.0 mm 0.00 in0.0 mm 0.00 in0.0 mm
01:08 AM 31.1°F-0.5°C 25.4°F-3.7°C 79% 3.7 mph SW6.0 kmh SW 4.2 mph6.8 kmh 30.12 in1020.0 mb 0.00 in0.0 mm 0.00 in0.0 mm 0.00 in0.0 mm
01:07 AM 31.1°F-0.5°C 25.4°F-3.7°C 79% 2.2 mph NNW3.5 kmh NNW 4.2 mph6.8 kmh 30.12 in1020.0 mb 0.00 in0.0 mm 0.00 in0.0 mm 0.00 in0.0 mm
01:06 AM 31.1°F-0.5°C 25.4°F-3.7°C 79% 2.7 mph NNW4.3 kmh NNW 4.2 mph6.8 kmh 30.12 in1020.0 mb 0.00 in0.0 mm 0.00 in0.0 mm 0.00 in0.0 mm
01:05 AM 31.1°F-0.5°C 25.4°F-3.7°C 79% 1.1 mph NNW1.8 kmh NNW 4.2 mph6.8 kmh 30.12 in1020.0 mb 0.00 in0.0 mm 0.00 in0.0 mm 0.00 in0.0 mm
01:04 AM 31.1°F-0.5°C 25.4°F-3.7°C 79% 1.7 mph W2.7 kmh W 5.3 mph8.5 kmh 30.12 in1020.0 mb 0.00 in0.0 mm 0.00 in0.0 mm 0.00 in0.0 mm
01:03 AM 31.3°F-0.4°C 25.6°F-3.6°C 79% 2.2 mph WNW3.5 kmh WNW 5.3 mph8.5 kmh 30.11 in1019.6 mb 0.00 in0.0 mm 0.00 in0.0 mm 0.00 in0.0 mm
01:02 AM 31.3°F-0.4°C 25.6°F-3.6°C 79% Calm Calm 5.3 mph8.5 kmh 30.11 in1019.6 mb 0.00 in0.0 mm 0.00 in0.0 mm 0.00 in0.0 mm
01:01 AM 31.5°F-0.3°C 25.8°F-3.4°C 79% 1.7 mph NNW2.7 kmh NNW 5.3 mph8.5 kmh 30.11 in1019.6 mb 0.00 in0.0 mm 0.00 in0.0 mm 0.00 in0.0 mm
01:00 AM 31.5°F-0.3°C 25.8°F-3.4°C 79% 1.7 mph WNW2.7 kmh WNW 5.3 mph8.5 kmh 30.11 in1019.6 mb 0.00 in0.0 mm 0.00 in0.0 mm 0.00 in0.0 mm
12:59 AM 31.5°F-0.3°C 25.8°F-3.4°C 79% 2.2 mph NNW3.5 kmh NNW 5.3 mph8.5 kmh 30.11 in1019.6 mb 0.00 in0.0 mm 0.00 in0.0 mm 0.00 in0.0 mm
12:58 AM 31.5°F-0.3°C 26.1°F-3.3°C 80% 4.2 mph W6.8 kmh W 6.3 mph10.1 kmh 30.11 in1019.6 mb 0.00 in0.0 mm 0.00 in0.0 mm 0.00 in0.0 mm
12:57 AM 31.6°F-0.2°C 26.2°F-3.2°C 80% 3.2 mph W5.1 kmh W 6.3 mph10.1 kmh 30.11 in1019.6 mb 0.00 in0.0 mm 0.00 in0.0 mm 0.00 in0.0 mm
12:56 AM 31.6°F-0.2°C 26.5°F-3.1°C 81% 2.2 mph WNW3.5 kmh WNW 6.3 mph10.1 kmh 30.11 in1019.6 mb 0.00 in0.0 mm 0.00 in0.0 mm 0.00 in0.0 mm
12:55 AM 31.6°F-0.2°C 26.5°F-3.1°C 81% 3.7 mph WNW6.0 kmh WNW 6.3 mph10.1 kmh 30.11 in1019.6 mb 0.00 in0.0 mm 0.00 in0.0 mm 0.00 in0.0 mm
12:54 AM 31.8°F-0.1°C 26.9°F-2.8°C 82% 5.3 mph WNW8.5 kmh WNW 6.3 mph10.1 kmh 30.11 in1019.6 mb 0.00 in0.0 mm 0.00 in0.0 mm 0.00 in0.0 mm
12:53 AM 31.8°F-0.1°C 26.9°F-2.8°C 82% 2.7 mph W4.3 kmh W 6.3 mph10.1 kmh 30.11 in1019.6 mb 0.00 in0.0 mm 0.00 in0.0 mm 0.00 in0.0 mm
12:52 AM 32.0°F0.0°C 27.1°F-2.7°C 82% 2.7 mph WNW4.3 kmh WNW 6.3 mph10.1 kmh 30.11 in1019.6 mb 0.00 in0.0 mm 0.00 in0.0 mm 0.00 in0.0 mm
12:51 AM 32.0°F0.0°C 27.4°F-2.6°C 83% 1.7 mph W2.7 kmh W 6.8 mph10.9 kmh 30.11 in1019.6 mb 0.00 in0.0 mm 0.00 in0.0 mm 0.00 in0.0 mm
12:50 AM 32.2°F0.1°C 27.6°F-2.4°C 83% 2.7 mph WNW4.3 kmh WNW 6.8 mph10.9 kmh 30.11 in1019.6 mb 0.00 in0.0 mm 0.00 in0.0 mm 0.00 in0.0 mm
12:49 AM 32.2°F0.1°C 27.9°F-2.3°C 84% 2.2 mph W3.5 kmh W 6.8 mph10.9 kmh 30.11 in1019.6 mb 0.00 in0.0 mm 0.00 in0.0 mm 0.00 in0.0 mm
12:48 AM 32.4°F0.2°C 28.4°F-2.0°C 85% 6.3 mph WSW10.1 kmh WSW 6.8 mph10.9 kmh 30.11 in1019.6 mb 0.00 in0.0 mm 0.00 in0.0 mm 0.00 in0.0 mm
12:47 AM 32.4°F0.2°C 28.4°F-2.0°C 85% 4.2 mph WSW6.8 kmh WSW 6.8 mph10.9 kmh 30.11 in1019.6 mb 0.00 in0.0 mm 0.00 in0.0 mm 0.00 in0.0 mm
12:46 AM 32.4°F0.2°C 28.4°F-2.0°C 85% 4.2 mph NW6.8 kmh NW 6.8 mph10.9 kmh 30.11 in1019.6 mb 0.00 in0.0 mm 0.00 in0.0 mm 0.00 in0.0 mm
12:45 AM 32.5°F0.3°C 28.5°F-1.9°C 85% 3.2 mph WNW5.1 kmh WNW 6.8 mph10.9 kmh 30.11 in1019.6 mb 0.00 in0.0 mm 0.00 in0.0 mm 0.00 in0.0 mm
12:44 AM 32.7°F0.4°C 28.7°F-1.8°C 85% 3.2 mph WNW5.1 kmh WNW 6.8 mph10.9 kmh 30.11 in1019.6 mb 0.00 in0.0 mm 0.00 in0.0 mm 0.00 in0.0 mm
12:43 AM 32.7°F0.4°C 28.7°F-1.8°C 85% 5.3 mph NNE8.5 kmh NNE 6.8 mph10.9 kmh 30.11 in1019.6 mb 0.00 in0.0 mm 0.00 in0.0 mm 0.00 in0.0 mm
12:42 AM 32.7°F0.4°C 28.7°F-1.8°C 85% 4.2 mph WNW6.8 kmh WNW 6.8 mph10.9 kmh 30.11 in1019.6 mb 0.00 in0.0 mm 0.00 in0.0 mm 0.00 in0.0 mm
12:41 AM 32.7°F0.4°C 28.7°F-1.8°C 85% 6.8 mph NNE10.9 kmh NNE 6.8 mph10.9 kmh 30.11 in1019.6 mb 0.00 in0.0 mm 0.00 in0.0 mm 0.00 in0.0 mm
12:40 AM 32.9°F0.5°C 28.9°F-1.7°C 85% 6.3 mph W10.1 kmh W 6.8 mph10.9 kmh 30.10 in1019.3 mb 0.00 in0.0 mm 0.00 in0.0 mm 0.00 in0.0 mm
12:39 AM 33.1°F0.6°C 29.1°F-1.6°C 85% 5.3 mph W8.5 kmh W 6.8 mph10.9 kmh 30.10 in1019.3 mb 0.00 in0.0 mm 0.00 in0.0 mm 0.00 in0.0 mm
12:38 AM 33.1°F0.6°C 28.8°F-1.8°C 84% 5.3 mph NNW8.5 kmh NNW 6.8 mph10.9 kmh 30.10 in1019.3 mb 0.00 in0.0 mm 0.00 in0.0 mm 0.00 in0.0 mm
12:37 AM 33.1°F0.6°C 28.8°F-1.8°C 84% 3.2 mph WNW5.1 kmh WNW 5.3 mph8.5 kmh 30.10 in1019.3 mb 0.00 in0.0 mm 0.00 in0.0 mm 0.00 in0.0 mm
12:36 AM 33.1°F0.6°C 28.8°F-1.8°C 84% 3.2 mph WNW5.1 kmh WNW 5.3 mph8.5 kmh 30.10 in1019.3 mb 0.00 in0.0 mm 0.00 in0.0 mm 0.00 in0.0 mm
12:35 AM 33.1°F0.6°C 28.5°F-1.9°C 83% 2.7 mph N4.3 kmh N 5.3 mph8.5 kmh 30.10 in1019.3 mb 0.00 in0.0 mm 0.00 in0.0 mm 0.00 in0.0 mm
12:34 AM 33.1°F0.6°C 28.5°F-1.9°C 83% 3.2 mph NW5.1 kmh NW 4.7 mph7.6 kmh 30.10 in1019.3 mb 0.00 in0.0 mm 0.00 in0.0 mm 0.00 in0.0 mm
12:33 AM 33.1°F0.6°C 28.5°F-1.9°C 83% 1.1 mph N1.8 kmh N 4.7 mph7.6 kmh 30.10 in1019.3 mb 0.00 in0.0 mm 0.00 in0.0 mm 0.00 in0.0 mm
12:32 AM 33.3°F0.7°C 28.7°F-1.8°C 83% 3.2 mph WNW5.1 kmh WNW 4.7 mph7.6 kmh 30.10 in1019.3 mb 0.00 in0.0 mm 0.00 in0.0 mm 0.00 in0.0 mm
12:31 AM 33.3°F0.7°C 28.7°F-1.8°C 83% 3.2 mph NW5.1 kmh NW 4.7 mph7.6 kmh 30.10 in1019.3 mb 0.00 in0.0 mm 0.00 in0.0 mm 0.00 in0.0 mm
12:30 AM 33.3°F0.7°C 28.7°F-1.8°C 83% 2.2 mph WSW3.5 kmh WSW 4.7 mph7.6 kmh 30.10 in1019.3 mb 0.00 in0.0 mm 0.00 in0.0 mm 0.00 in0.0 mm
12:29 AM 33.3°F0.7°C 28.7°F-1.8°C 83% 2.2 mph W3.5 kmh W 4.7 mph7.6 kmh 30.10 in1019.3 mb 0.00 in0.0 mm 0.00 in0.0 mm 0.00 in0.0 mm
12:28 AM 33.4°F0.8°C 28.5°F-1.9°C 82% 3.7 mph WNW6.0 kmh WNW 6.3 mph10.1 kmh 30.09 in1019.0 mb 0.00 in0.0 mm 0.00 in0.0 mm 0.00 in0.0 mm
12:27 AM 33.4°F0.8°C 28.5°F-1.9°C 82% 2.7 mph NNW4.3 kmh NNW 6.3 mph10.1 kmh 30.09 in1019.0 mb 0.00 in0.0 mm 0.00 in0.0 mm 0.00 in0.0 mm
12:26 AM 33.6°F0.9°C 28.1°F-2.2°C 80% 3.7 mph NW6.0 kmh NW 6.3 mph10.1 kmh 30.09 in1019.0 mb 0.00 in0.0 mm 0.00 in0.0 mm 0.00 in0.0 mm
12:25 AM 33.6°F0.9°C 27.8°F-2.3°C 79% 4.7 mph N7.6 kmh N 6.3 mph10.1 kmh 30.09 in1019.0 mb 0.00 in0.0 mm 0.00 in0.0 mm 0.00 in0.0 mm
12:24 AM 33.6°F0.9°C 27.2°F-2.7°C 77% 3.7 mph W6.0 kmh W 6.3 mph10.1 kmh 30.09 in1019.0 mb 0.00 in0.0 mm 0.00 in0.0 mm 0.00 in0.0 mm
12:23 AM 33.6°F0.9°C 26.9°F-2.8°C 76% 2.7 mph WNW4.3 kmh WNW 6.3 mph10.1 kmh 30.09 in1019.0 mb 0.00 in0.0 mm 0.00 in0.0 mm 0.00 in0.0 mm
12:22 AM 33.4°F0.8°C 26.3°F-3.2°C 75% 4.2 mph W6.8 kmh W 6.3 mph10.1 kmh 30.09 in1019.0 mb 0.00 in0.0 mm 0.00 in0.0 mm 0.00 in0.0 mm
12:21 AM 33.3°F0.7°C 26.2°F-3.2°C 75% 4.2 mph W6.8 kmh W 6.3 mph10.1 kmh 30.09 in1019.0 mb 0.00 in0.0 mm 0.00 in0.0 mm 0.00 in0.0 mm
12:20 AM 33.3°F0.7°C 26.2°F-3.2°C 75% 1.1 mph W1.8 kmh W 6.3 mph10.1 kmh 30.09 in1019.0 mb 0.00 in0.0 mm 0.00 in0.0 mm 0.00 in0.0 mm
12:19 AM 33.3°F0.7°C 26.6°F-3.0°C 76% 4.2 mph NNE6.8 kmh NNE 6.3 mph10.1 kmh 30.09 in1019.0 mb 0.00 in0.0 mm 0.00 in0.0 mm 0.00 in0.0 mm
12:18 AM 33.1°F0.6°C 26.4°F-3.1°C 76% 3.7 mph W6.0 kmh W 4.2 mph6.8 kmh 30.09 in1019.0 mb 0.00 in0.0 mm 0.00 in0.0 mm 0.00 in0.0 mm
12:17 AM 33.1°F0.6°C 26.4°F-3.1°C 76% 1.7 mph WNW2.7 kmh WNW 4.2 mph6.8 kmh 30.09 in1019.0 mb 0.00 in0.0 mm 0.00 in0.0 mm 0.00 in0.0 mm
12:16 AM 32.9°F0.5°C 26.2°F-3.2°C 76% 4.2 mph WNW6.8 kmh WNW 4.2 mph6.8 kmh 30.08 in1018.6 mb 0.00 in0.0 mm 0.00 in0.0 mm 0.00 in0.0 mm
12:15 AM 32.7°F0.4°C 26.3°F-3.2°C 77% 2.7 mph WSW4.3 kmh WSW 3.7 mph6.0 kmh 30.08 in1018.6 mb 0.00 in0.0 mm 0.00 in0.0 mm 0.00 in0.0 mm
12:14 AM 32.5°F0.3°C 26.1°F-3.3°C 77% 2.2 mph W3.5 kmh W 3.2 mph5.1 kmh 30.08 in1018.6 mb 0.00 in0.0 mm 0.00 in0.0 mm 0.00 in0.0 mm
12:13 AM 32.5°F0.3°C 26.1°F-3.3°C 77% 1.7 mph WNW2.7 kmh WNW 3.2 mph5.1 kmh 30.08 in1018.6 mb 0.00 in0.0 mm 0.00 in0.0 mm 0.00 in0.0 mm
12:12 AM 32.5°F0.3°C 26.1°F-3.3°C 77% 1.1 mph SSE1.8 kmh SSE 3.2 mph5.1 kmh 30.08 in1018.6 mb 0.00 in0.0 mm 0.00 in0.0 mm 0.00 in0.0 mm
12:11 AM 32.5°F0.3°C 26.1°F-3.3°C 77% 2.7 mph W4.3 kmh W 3.2 mph5.1 kmh 30.08 in1018.6 mb 0.00 in0.0 mm 0.00 in0.0 mm 0.00 in0.0 mm
12:10 AM 32.5°F0.3°C 26.1°F-3.3°C 77% 1.7 mph SW2.7 kmh SW 3.7 mph6.0 kmh 30.08 in1018.6 mb 0.00 in0.0 mm 0.00 in0.0 mm 0.00 in0.0 mm
12:09 AM 32.4°F0.2°C 26.0°F-3.3°C 77% 2.7 mph WNW4.3 kmh WNW 3.7 mph6.0 kmh 30.08 in1018.6 mb 0.00 in0.0 mm 0.00 in0.0 mm 0.00 in0.0 mm
12:08 AM 32.4°F0.2°C 26.0°F-3.3°C 77% 1.7 mph NE2.7 kmh NE 3.7 mph6.0 kmh 30.08 in1018.6 mb 0.00 in0.0 mm 0.00 in0.0 mm 0.00 in0.0 mm
12:07 AM 32.4°F0.2°C 26.0°F-3.3°C 77% Calm Calm 3.7 mph6.0 kmh 30.08 in1018.6 mb 0.00 in0.0 mm 0.00 in0.0 mm 0.00 in0.0 mm
12:06 AM 32.4°F0.2°C 26.0°F-3.3°C 77% 2.7 mph E4.3 kmh E 3.7 mph6.0 kmh 30.08 in1018.6 mb 0.00 in0.0 mm 0.00 in0.0 mm 0.00 in0.0 mm
12:05 AM 32.4°F0.2°C 26.0°F-3.3°C 77% 2.7 mph ESE4.3 kmh ESE 3.7 mph6.0 kmh 30.08 in1018.6 mb 0.00 in0.0 mm 0.00 in0.0 mm 0.00 in0.0 mm
12:04 AM 32.4°F0.2°C 26.0°F-3.3°C 77% 2.7 mph W4.3 kmh W 4.2 mph6.8 kmh 30.08 in1018.6 mb 0.00 in0.0 mm 0.00 in0.0 mm 0.00 in0.0 mm
12:03 AM 32.4°F0.2°C 26.0°F-3.3°C 77% 2.2 mph WNW3.5 kmh WNW 4.2 mph6.8 kmh 30.07 in1018.3 mb 0.00 in0.0 mm 0.00 in0.0 mm 0.00 in0.0 mm
12:02 AM 32.4°F0.2°C 26.0°F-3.3°C 77% 2.2 mph SSW3.5 kmh SSW 4.2 mph6.8 kmh 30.07 in1018.3 mb 0.00 in0.0 mm 0.00 in0.0 mm 0.00 in0.0 mm
12:01 AM 32.4°F0.2°C 26.0°F-3.3°C 77% 1.1 mph W1.8 kmh W 4.2 mph6.8 kmh 30.07 in1018.3 mb 0.00 in0.0 mm 0.00 in0.0 mm 0.00 in0.0 mm
12:00 AM 32.4°F0.2°C 26.0°F-3.3°C 77% 2.7 mph NE4.3 kmh NE 6.3 mph10.1 kmh 30.07 in1018.3 mb 0.00 in0.0 mm 0.00 in0.0 mm 0.00 in0.0 mm